Time;durP1;ratioP1;P1;durP2;ratioP2;P2;SDS_P1;SDS_P2;PMS_P1;PMS_P2;Temp;Humidity;BMP_temperature;BMP_pressure;BME280_temperature;BME280_humidity;BME280_pressure;Samples;Min_cycle;Max_cycle;Signal;HPM_P1;HPM_P2
2021/04/14 00:00:24;;;;;;;0.82;0.45;;;4.80;99.90;;;;;;4429414;32;20249;-76
2021/04/14 00:02:50;;;;;;;1.00;0.90;;;4.80;99.90;;;;;;4430596;32;20061;-76
2021/04/14 00:05:18;;;;;;;0.30;0.30;;;4.80;99.90;;;;;;4429204;32;20081;-76
2021/04/14 00:07:44;;;;;;;0.30;0.30;;;4.80;99.90;;;;;;4429305;32;20065;-77
2021/04/14 00:10:10;;;;;;;0.30;0.30;;;4.70;99.90;;;;;;4426573;32;20074;-76
2021/04/14 00:12:36;;;;;;;0.40;0.40;;;4.70;99.90;;;;;;4414502;32;20090;-76
2021/04/14 00:15:07;;;;;;;0.93;0.80;;;4.60;99.90;;;;;;4415114;32;20081;-76
2021/04/14 00:17:32;;;;;;;0.52;0.52;;;4.70;99.90;;;;;;4413981;32;20073;-76
2021/04/14 00:19:58;;;;;;;0.30;0.30;;;4.80;99.90;;;;;;4414160;32;20086;-76
2021/04/14 00:22:23;;;;;;;1.45;0.62;;;4.70;99.90;;;;;;4412961;32;20086;-76
2021/04/14 00:24:49;;;;;;;1.20;1.10;;;4.60;99.90;;;;;;4414090;32;20074;-76
2021/04/14 00:27:14;;;;;;;0.35;0.35;;;4.50;99.90;;;;;;4414161;32;20424;-76
2021/04/14 00:29:40;;;;;;;2.87;1.17;;;4.50;99.90;;;;;;4421953;32;20089;-77
2021/04/14 00:32:06;;;;;;;0.50;0.50;;;4.50;99.90;;;;;;4429027;32;20424;-76
2021/04/14 00:34:31;;;;;;;1.23;0.60;;;4.40;99.90;;;;;;4428634;32;20082;-76
2021/04/14 00:36:57;;;;;;;0.30;0.30;;;4.40;99.90;;;;;;4428808;32;20347;-76
2021/04/14 00:39:25;;;;;;;0.40;0.40;;;4.40;99.90;;;;;;4428900;32;20598;-77
2021/04/14 00:41:53;;;;;;;0.22;0.22;;;4.40;99.90;;;;;;4429344;32;20144;-76
2021/04/14 00:44:19;;;;;;;0.40;0.40;;;4.30;99.90;;;;;;4428888;32;20073;-77
2021/04/14 00:46:45;;;;;;;0.22;0.22;;;4.30;99.90;;;;;;4429549;32;20069;-76
2021/04/14 00:49:12;;;;;;;0.60;0.60;;;4.30;99.90;;;;;;4428730;32;20554;-76
2021/04/14 00:51:37;;;;;;;1.90;1.08;;;4.30;99.90;;;;;;4429378;32;20561;-76
2021/04/14 00:54:03;;;;;;;1.33;1.15;;;4.20;99.90;;;;;;4429201;32;20065;-76
2021/04/14 00:56:29;;;;;;;0.30;0.30;;;4.20;99.90;;;;;;4429096;32;20072;-77
2021/04/14 00:58:54;;;;;;;0.40;0.40;;;4.10;99.90;;;;;;4428478;32;20065;-77
2021/04/14 01:01:20;;;;;;;0.30;0.30;;;4.10;99.90;;;;;;4429491;32;20511;-76
2021/04/14 01:03:45;;;;;;;0.32;0.32;;;4.10;99.90;;;;;;4427654;32;20062;-76
2021/04/14 01:06:17;;;;;;;0.30;0.30;;;4.10;99.90;;;;;;4428959;32;20156;-77
2021/04/14 01:08:42;;;;;;;0.40;0.40;;;4.10;99.90;;;;;;4428324;32;20069;-76
2021/04/14 01:11:11;;;;;;;0.70;0.70;;;4.10;99.90;;;;;;4429294;32;20156;-76
2021/04/14 01:13:37;;;;;;;0.45;0.45;;;4.00;99.90;;;;;;4429331;32;20073;-76
2021/04/14 01:16:03;;;;;;;0.60;0.60;;;3.90;99.90;;;;;;4428843;32;20077;-76
2021/04/14 01:18:31;;;;;;;0.22;0.22;;;3.90;99.90;;;;;;4428455;32;20538;-76
2021/04/14 01:20:57;;;;;;;1.37;1.00;;;3.80;99.90;;;;;;4428623;32;20069;-77
2021/04/14 01:23:26;;;;;;;0.30;0.30;;;3.90;99.90;;;;;;4429159;32;20078;-77
2021/04/14 01:25:52;;;;;;;0.40;0.40;;;3.90;99.90;;;;;;4427929;32;20120;-76
2021/04/14 01:28:22;;;;;;;0.30;0.30;;;4.00;99.90;;;;;;4428775;32;20073;-77
2021/04/14 01:30:49;;;;;;;0.40;0.40;;;3.80;99.90;;;;;;4428732;32;20082;-76
2021/04/14 01:33:16;;;;;;;0.40;0.40;;;3.70;99.90;;;;;;4428383;32;20081;-77
2021/04/14 01:35:43;;;;;;;2.12;1.40;;;3.70;99.90;;;;;;4427919;32;20108;-77
2021/04/14 01:38:08;;;;;;;0.75;0.75;;;3.70;99.90;;;;;;4428760;32;20083;-76
2021/04/14 01:40:35;;;;;;;0.30;0.30;;;3.70;99.90;;;;;;4428042;32;20073;-76
2021/04/14 01:43:01;;;;;;;2.17;1.25;;;3.70;99.90;;;;;;4428761;32;20179;-76
2021/04/14 01:45:37;;;;;;;0.30;0.30;;;3.70;99.90;;;;;;4428785;32;20061;-76
2021/04/14 01:48:04;;;;;;;1.00;0.95;;;3.50;99.90;;;;;;4428661;32;20553;-76
2021/04/14 01:50:30;;;;;;;0.40;0.40;;;3.60;99.90;;;;;;4429723;32;20062;-76
2021/04/14 01:52:56;;;;;;;0.30;0.30;;;3.60;99.90;;;;;;4430415;32;20078;-76
2021/04/14 01:55:23;;;;;;;0.75;0.75;;;3.60;99.90;;;;;;4429664;32;20089;-76
2021/04/14 01:57:49;;;;;;;0.30;0.30;;;3.60;99.90;;;;;;4431424;32;20065;-77
2021/04/14 02:00:22;;;;;;;0.30;0.30;;;3.50;99.90;;;;;;4431147;32;20078;-77
2021/04/14 02:02:49;;;;;;;0.75;0.75;;;3.60;99.90;;;;;;4431199;32;20116;-76
2021/04/14 02:05:16;;;;;;;3.25;1.08;;;3.60;99.90;;;;;;4430794;32;20069;-77
2021/04/14 02:07:41;;;;;;;0.30;0.30;;;3.50;99.90;;;;;;4430520;32;20077;-76
2021/04/14 02:10:09;;;;;;;0.43;0.43;;;3.50;99.90;;;;;;4430867;32;20073;-77
2021/04/14 02:12:35;;;;;;;0.30;0.30;;;3.50;99.90;;;;;;4431423;32;20507;-76
2021/04/14 02:15:03;;;;;;;0.75;0.60;;;3.40;99.90;;;;;;4430931;32;20070;-76
2021/04/14 02:17:29;;;;;;;6.07;1.05;;;3.40;99.90;;;;;;4431195;32;20120;-77
2021/04/14 02:19:54;;;;;;;0.40;0.40;;;3.50;99.90;;;;;;4430745;32;20073;-77
2021/04/14 02:22:20;;;;;;;0.30;0.30;;;3.40;99.90;;;;;;4429963;32;20396;-76
2021/04/14 02:24:45;;;;;;;0.40;0.40;;;3.50;99.90;;;;;;4430907;32;20069;-76
2021/04/14 02:27:11;;;;;;;1.52;0.73;;;3.40;99.90;;;;;;4430586;32;20736;-77
2021/04/14 02:29:36;;;;;;;0.30;0.30;;;3.30;99.90;;;;;;4430873;32;20072;-76
2021/04/14 02:32:03;;;;;;;1.02;0.73;;;3.20;99.90;;;;;;4430463;32;20111;-76
2021/04/14 02:34:28;;;;;;;2.90;1.65;;;3.20;99.90;;;;;;4430615;32;20069;-76
2021/04/14 02:36:54;;;;;;;0.30;0.30;;;3.20;99.90;;;;;;4430110;32;20074;-76
2021/04/14 02:39:19;;;;;;;0.22;0.22;;;3.30;99.90;;;;;;4430533;32;20073;-77
2021/04/14 02:41:46;;;;;;;0.37;0.37;;;3.40;99.90;;;;;;4430385;32;20081;-77
2021/04/14 02:44:11;;;;;;;0.28;0.28;;;3.30;99.90;;;;;;4430425;32;20127;-76
2021/04/14 02:46:37;;;;;;;8.77;1.00;;;3.20;99.90;;;;;;4430370;32;20065;-76
2021/04/14 02:49:02;;;;;;;0.30;0.30;;;3.20;99.90;;;;;;4430670;32;20569;-76
2021/04/14 02:51:28;;;;;;;0.40;0.40;;;3.20;99.90;;;;;;4430753;32;20065;-77
2021/04/14 02:53:53;;;;;;;1.00;0.50;;;3.20;99.90;;;;;;4429950;32;20073;-76
2021/04/14 02:56:19;;;;;;;0.30;0.30;;;3.20;99.90;;;;;;4430771;32;20077;-76
2021/04/14 02:58:47;;;;;;;0.43;0.43;;;3.20;99.90;;;;;;4431155;32;20066;-76
2021/04/14 03:01:13;;;;;;;0.37;0.37;;;3.30;99.90;;;;;;4430595;32;20073;-76
2021/04/14 03:03:39;;;;;;;1.75;0.73;;;3.20;99.90;;;;;;4430453;32;20094;-76
2021/04/14 03:06:04;;;;;;;1.37;0.90;;;3.20;99.90;;;;;;4430812;32;20393;-76
2021/04/14 03:08:30;;;;;;;2.42;0.95;;;3.20;99.90;;;;;;4430805;32;20069;-76
2021/04/14 03:10:55;;;;;;;0.30;0.30;;;3.10;99.90;;;;;;4429970;32;20069;-77
2021/04/14 03:13:22;;;;;;;0.65;0.65;;;3.10;99.90;;;;;;4430519;32;20073;-76
2021/04/14 03:15:47;;;;;;;0.32;0.32;;;3.00;99.90;;;;;;4430274;32;20129;-77
2021/04/14 03:18:15;;;;;;;1.83;0.88;;;3.00;99.90;;;;;;4429734;32;20192;-77
2021/04/14 03:20:42;;;;;;;0.30;0.30;;;3.00;99.90;;;;;;4430195;32;20066;-76
2021/04/14 03:23:10;;;;;;;0.30;0.30;;;2.90;99.90;;;;;;4430085;32;20479;-77
2021/04/14 03:25:36;;;;;;;0.37;0.37;;;2.80;99.90;;;;;;4429780;32;20069;-77
2021/04/14 03:28:03;;;;;;;0.88;0.82;;;2.90;99.90;;;;;;4429936;32;20194;-77
2021/04/14 03:30:29;;;;;;;0.68;0.68;;;2.90;99.90;;;;;;4429819;32;20082;-77
2021/04/14 03:32:54;;;;;;;0.30;0.30;;;2.90;99.90;;;;;;4429749;32;20315;-76
2021/04/14 03:35:23;;;;;;;3.83;1.50;;;2.80;99.90;;;;;;4430857;32;20053;-77
2021/04/14 03:37:48;;;;;;;0.30;0.30;;;2.80;99.90;;;;;;4429561;32;20132;-76
2021/04/14 03:40:15;;;;;;;0.45;0.45;;;2.70;99.90;;;;;;4429388;32;20069;-77
2021/04/14 03:42:41;;;;;;;1.65;1.12;;;2.70;99.90;;;;;;4430369;32;20073;-77
2021/04/14 03:45:14;;;;;;;0.60;0.60;;;2.70;99.90;;;;;;4430161;32;20081;-77
2021/04/14 03:47:40;;;;;;;0.98;0.68;;;2.60;99.90;;;;;;4429549;32;20251;-76
2021/04/14 03:50:09;;;;;;;0.37;0.37;;;2.70;99.90;;;;;;4430153;32;20069;-77
2021/04/14 03:52:35;;;;;;;0.40;0.40;;;2.80;99.90;;;;;;4429331;32;20124;-77
2021/04/14 03:55:00;;;;;;;0.32;0.32;;;2.80;99.90;;;;;;4429585;32;20061;-77
2021/04/14 03:57:26;;;;;;;6.03;1.77;;;2.80;99.90;;;;;;4429703;32;20065;-77
2021/04/14 03:59:52;;;;;;;0.37;0.37;;;2.90;99.90;;;;;;4430378;32;20073;-77
2021/04/14 04:02:18;;;;;;;2.35;1.73;;;2.90;99.90;;;;;;4429416;32;20506;-77
2021/04/14 04:04:43;;;;;;;0.30;0.30;;;2.90;99.90;;;;;;4429611;32;20127;-77
2021/04/14 04:07:09;;;;;;;0.57;0.57;;;2.80;99.90;;;;;;4429548;32;20128;-77
2021/04/14 04:09:34;;;;;;;1.15;1.05;;;2.70;99.90;;;;;;4429492;32;20077;-76
2021/04/14 04:12:01;;;;;;;0.30;0.30;;;2.80;99.90;;;;;;4428956;32;20486;-76
2021/04/14 04:14:31;;;;;;;0.37;0.37;;;2.90;99.90;;;;;;4429679;32;20462;-77
2021/04/14 04:16:57;;;;;;;2.05;1.73;;;2.80;99.90;;;;;;4429807;32;20432;-76
2021/04/14 04:19:23;;;;;;;10.77;1.10;;;2.80;99.90;;;;;;4429823;32;20078;-76
2021/04/14 04:21:48;;;;;;;3.60;0.88;;;2.70;99.90;;;;;;4418919;32;20069;-76
2021/04/14 04:24:14;;;;;;;6.12;1.95;;;2.70;99.90;;;;;;4426390;32;20069;-77
2021/04/14 04:26:39;;;;;;;0.30;0.30;;;2.60;99.90;;;;;;4426665;32;20094;-77
2021/04/14 04:29:05;;;;;;;4.60;2.55;;;2.60;99.90;;;;;;4429166;32;20062;-76
2021/04/14 04:31:30;;;;;;;0.30;0.30;;;2.60;99.90;;;;;;4429340;32;20065;-76
2021/04/14 04:33:56;;;;;;;0.90;0.88;;;2.60;99.90;;;;;;4429225;32;20077;-76
2021/04/14 04:36:21;;;;;;;27.25;1.75;;;2.60;99.90;;;;;;4429433;32;20142;-76
2021/04/14 04:38:47;;;;;;;0.40;0.40;;;2.60;99.90;;;;;;4429035;32;20078;-77
2021/04/14 04:41:12;;;;;;;0.65;0.65;;;2.70;99.90;;;;;;4429282;32;20168;-76
2021/04/14 04:43:38;;;;;;;5.28;1.27;;;2.70;99.90;;;;;;4429210;32;20065;-77
2021/04/14 04:46:03;;;;;;;7.53;1.00;;;2.70;99.90;;;;;;4429502;32;20069;-76
2021/04/14 04:48:29;;;;;;;0.30;0.30;;;2.80;99.90;;;;;;4428768;32;20065;-76
2021/04/14 04:50:54;;;;;;;0.30;0.30;;;2.80;99.90;;;;;;4429227;32;20066;-76
2021/04/14 04:53:22;;;;;;;0.50;0.50;;;2.70;99.90;;;;;;4427954;32;20065;-76
2021/04/14 04:55:49;;;;;;;0.40;0.40;;;2.60;99.90;;;;;;4429778;32;20464;-76
2021/04/14 04:58:15;;;;;;;0.22;0.22;;;2.70;99.90;;;;;;4427283;32;20061;-76
2021/04/14 05:00:42;;;;;;;0.30;0.30;;;2.70;99.90;;;;;;4427393;32;20586;-76
2021/04/14 05:03:08;;;;;;;0.37;0.37;;;2.70;99.90;;;;;;4416359;32;20511;-76
2021/04/14 05:05:37;;;;;;;1.73;0.55;;;2.80;99.90;;;;;;4424205;32;20072;-76
2021/04/14 05:08:05;;;;;;;0.30;0.30;;;2.80;99.90;;;;;;4427548;32;20073;-76
2021/04/14 05:10:32;;;;;;;0.40;0.40;;;2.70;99.90;;;;;;4433686;32;20448;-77
2021/04/14 05:12:57;;;;;;;0.43;0.43;;;2.80;99.90;;;;;;4425666;32;20091;-76
2021/04/14 05:15:26;;;;;;;0.50;0.50;;;2.80;99.90;;;;;;4433418;32;20076;-76
2021/04/14 05:17:52;;;;;;;0.32;0.32;;;2.80;99.90;;;;;;4407251;32;20229;-76
2021/04/14 05:20:18;;;;;;;5.40;2.37;;;2.80;99.90;;;;;;4423243;32;20073;-76
2021/04/14 05:22:45;;;;;;;0.35;0.35;;;2.90;99.90;;;;;;4425677;32;20181;-76
2021/04/14 05:25:17;;;;;;;0.45;0.45;;;2.80;99.90;;;;;;4426594;32;20127;-76
2021/04/14 05:27:43;;;;;;;0.50;0.50;;;2.80;99.90;;;;;;4412736;32;20093;-77
2021/04/14 05:30:10;;;;;;;0.30;0.30;;;2.80;99.90;;;;;;4415029;32;20092;-76
2021/04/14 05:32:36;;;;;;;0.30;0.30;;;3.00;99.90;;;;;;4396009;32;20777;-77
2021/04/14 05:35:02;;;;;;;0.40;0.40;;;3.10;99.90;;;;;;4416708;32;20161;-76
2021/04/14 05:37:28;;;;;;;23.00;1.20;;;3.10;99.90;;;;;;4408878;32;20081;-76
2021/04/14 05:39:55;;;;;;;0.30;0.30;;;3.10;99.90;;;;;;4424994;32;20086;-76
2021/04/14 05:42:22;;;;;;;0.60;0.60;;;3.10;99.90;;;;;;4424769;32;20081;-76
2021/04/14 05:44:48;;;;;;;0.30;0.30;;;3.10;99.90;;;;;;4421366;32;20264;-76
2021/04/14 05:47:14;;;;;;;0.40;0.40;;;3.20;99.90;;;;;;4421123;32;20073;-76
2021/04/14 05:49:40;;;;;;;0.43;0.43;;;3.30;99.90;;;;;;4432930;32;20065;-76
2021/04/14 05:52:05;;;;;;;0.75;0.62;;;3.20;99.90;;;;;;4423119;32;20073;-76
2021/04/14 05:54:30;;;;;;;0.57;0.57;;;3.20;99.90;;;;;;4426420;32;20065;-76
2021/04/14 05:56:57;;;;;;;0.98;0.88;;;3.20;99.90;;;;;;4433837;32;20090;-77
2021/04/14 05:59:24;;;;;;;5.15;2.92;;;3.20;99.90;;;;;;4424856;32;20077;-76
2021/04/14 06:01:49;;;;;;;2.08;1.25;;;3.30;99.90;;;;;;4426965;32;20120;-76
2021/04/14 06:04:16;;;;;;;0.47;0.47;;;3.40;99.90;;;;;;4424355;32;20089;-76
2021/04/14 06:06:42;;;;;;;0.30;0.30;;;3.50;99.90;;;;;;4420996;32;20490;-76
2021/04/14 06:09:09;;;;;;;4.12;2.58;;;3.40;99.90;;;;;;4425252;32;20132;-75
2021/04/14 06:11:35;;;;;;;0.30;0.30;;;3.40;99.90;;;;;;4422838;32;20089;-75
2021/04/14 06:14:00;;;;;;;0.88;0.88;;;3.50;99.90;;;;;;4421031;32;20617;-76
2021/04/14 06:16:26;;;;;;;0.47;0.47;;;3.60;99.90;;;;;;4419712;32;20065;-76
2021/04/14 06:18:52;;;;;;;0.30;0.30;;;3.70;99.90;;;;;;4423497;32;20073;-75
2021/04/14 06:21:18;;;;;;;4.55;1.12;;;3.80;99.90;;;;;;4421785;32;20089;-76
2021/04/14 06:23:45;;;;;;;1.48;0.73;;;3.70;99.90;;;;;;4417980;32;20373;-76
2021/04/14 06:26:22;;;;;;;0.57;0.57;;;3.80;99.90;;;;;;4422546;32;20066;-76
2021/04/14 06:28:47;;;;;;;0.30;0.30;;;3.80;99.90;;;;;;4425191;32;20498;-76
2021/04/14 06:31:13;;;;;;;0.75;0.75;;;3.90;99.90;;;;;;4424663;32;20124;-75
2021/04/14 06:33:41;;;;;;;0.40;0.40;;;3.90;99.90;;;;;;4422383;32;20128;-75
2021/04/14 06:36:08;;;;;;;0.57;0.57;;;3.80;99.90;;;;;;4425396;32;20069;-76
2021/04/14 06:38:37;;;;;;;0.77;0.77;;;3.90;99.90;;;;;;4426151;32;20124;-75
2021/04/14 06:41:42;;;;;;;1.37;0.75;;;4.10;99.90;;;;;;4426780;32;20082;-75
2021/04/14 06:44:25;;;;;;;0.82;0.77;;;4.10;99.90;;;;;;4418962;32;20073;-75
2021/04/14 06:46:52;;;;;;;0.30;0.30;;;4.30;99.90;;;;;;4423941;32;20100;-75
2021/04/14 06:49:36;;;;;;;3.72;1.05;;;4.40;99.90;;;;;;4427213;32;20137;-76
2021/04/14 06:52:25;;;;;;;0.85;0.85;;;4.50;99.90;;;;;;4425889;32;20381;-75
2021/04/14 06:54:58;;;;;;;0.30;0.30;;;4.60;99.90;;;;;;4428167;32;20099;-75
2021/04/14 06:57:29;;;;;;;0.60;0.60;;;4.70;99.90;;;;;;4426435;32;20069;-74
2021/04/14 07:00:01;;;;;;;0.50;0.50;;;4.80;99.90;;;;;;4423953;32;20397;-76
2021/04/14 07:02:33;;;;;;;0.57;0.57;;;4.80;99.90;;;;;;4432710;32;20118;-75
2021/04/14 07:05:04;;;;;;;3.20;0.95;;;4.70;99.90;;;;;;4425738;32;20069;-75
2021/04/14 07:07:33;;;;;;;1.10;0.80;;;4.90;99.90;;;;;;4425639;32;20062;-75
2021/04/14 07:10:05;;;;;;;0.40;0.40;;;4.90;99.90;;;;;;4423495;32;20081;-76
2021/04/14 07:12:31;;;;;;;0.30;0.30;;;4.90;99.90;;;;;;4422513;32;20094;-75
2021/04/14 07:14:58;;;;;;;7.20;1.05;;;4.90;99.90;;;;;;4427868;32;20078;-75
2021/04/14 07:18:05;;;;;;;0.40;0.40;;;4.90;99.90;;;;;;4424794;32;20082;-74
2021/04/14 07:20:39;;;;;;;0.20;0.20;;;5.10;99.90;;;;;;4405631;32;20074;-75
2021/04/14 07:23:33;;;;;;;2.20;1.85;;;5.20;99.90;;;;;;4425220;32;20065;-76
2021/04/14 07:26:02;;;;;;;0.30;0.30;;;5.30;99.90;;;;;;4412488;32;20143;-76
2021/04/14 07:28:43;;;;;;;0.40;0.40;;;5.40;99.90;;;;;;4423779;32;20081;-76
2021/04/14 07:31:13;;;;;;;4.90;1.17;;;5.60;99.90;;;;;;4424059;32;20413;-75
2021/04/14 07:34:02;;;;;;;1.48;0.98;;;5.50;99.90;;;;;;4416894;32;20396;-76
2021/04/14 07:36:32;;;;;;;4.78;1.80;;;5.70;99.90;;;;;;4410783;32;20078;-76
2021/04/14 07:39:21;;;;;;;2.37;1.00;;;5.90;99.90;;;;;;4423957;32;20144;-77
2021/04/14 07:42:14;;;;;;;0.30;0.30;;;6.10;99.90;;;;;;4425714;32;20081;-76
2021/04/14 07:44:58;;;;;;;0.70;0.57;;;6.10;99.90;;;;;;4413834;32;20061;-75
2021/04/14 07:47:27;;;;;;;0.40;0.40;;;6.20;99.90;;;;;;4418973;32;20609;-76
2021/04/14 07:49:53;;;;;;;0.80;0.80;;;6.20;99.90;;;;;;4424297;32;20113;-75
2021/04/14 07:52:25;;;;;;;3.10;1.25;;;6.20;99.90;;;;;;4421289;32;20077;-76
2021/04/14 07:54:52;;;;;;;0.40;0.40;;;6.30;99.90;;;;;;4424852;32;20073;-76
2021/04/14 07:57:28;;;;;;;0.30;0.30;;;6.30;99.90;;;;;;4425528;32;20069;-77
2021/04/14 07:59:54;;;;;;;0.30;0.30;;;6.40;99.90;;;;;;4422924;32;20094;-76
2021/04/14 08:02:30;;;;;;;0.85;0.80;;;6.60;99.90;;;;;;4421638;32;20155;-76
2021/04/14 08:05:21;;;;;;;2.03;0.73;;;6.90;99.90;;;;;;4424406;32;20065;-76
2021/04/14 08:07:48;;;;;;;0.40;0.35;;;7.10;99.90;;;;;;4425922;32;20061;-76
2021/04/14 08:10:17;;;;;;;1.20;0.70;;;7.10;99.90;;;;;;4426418;32;20062;-76
2021/04/14 08:13:04;;;;;;;0.35;0.35;;;7.30;99.90;;;;;;4421388;32;20661;-76
2021/04/14 08:15:34;;;;;;;0.22;0.22;;;7.30;99.90;;;;;;4423792;32;20530;-76
2021/04/14 08:18:17;;;;;;;0.50;0.50;;;7.20;99.90;;;;;;4421865;32;20073;-77
2021/04/14 08:21:02;;;;;;;5.03;1.85;;;7.30;99.90;;;;;;4424110;32;20089;-77
2021/04/14 08:23:27;;;;;;;0.60;0.60;;;7.30;99.90;;;;;;4420557;32;20579;-77
2021/04/14 08:25:55;;;;;;;1.08;0.70;;;7.40;99.90;;;;;;4426106;32;20121;-76
2021/04/14 08:28:40;;;;;;;0.28;0.28;;;7.20;99.90;;;;;;4423941;32;20065;-76
2021/04/14 08:31:35;;;;;;;0.40;0.40;;;7.20;99.90;;;;;;4419964;32;20084;-76
2021/04/14 08:34:11;;;;;;;0.40;0.40;;;7.20;99.90;;;;;;4426238;32;20074;-77
2021/04/14 08:36:42;;;;;;;0.28;0.28;;;7.10;99.90;;;;;;4425291;32;20066;-76
2021/04/14 08:39:12;;;;;;;1.40;1.05;;;7.20;99.90;;;;;;4425081;32;20065;-76
2021/04/14 08:41:38;;;;;;;1.40;0.60;;;7.30;99.90;;;;;;4430900;32;20141;-76
2021/04/14 08:44:11;;;;;;;7.47;1.00;;;7.50;99.90;;;;;;4425236;32;20074;-76
2021/04/14 08:46:38;;;;;;;0.40;0.40;;;7.80;99.90;;;;;;4426112;32;20077;-76
2021/04/14 08:49:10;;;;;;;0.28;0.28;;;8.00;99.90;;;;;;4427503;32;20162;-77
2021/04/14 08:51:41;;;;;;;0.30;0.30;;;8.00;99.90;;;;;;4424635;32;20121;-77
2021/04/14 08:54:13;;;;;;;0.40;0.40;;;8.00;99.90;;;;;;4426182;32;20109;-78
2021/04/14 08:56:39;;;;;;;0.52;0.40;;;8.00;99.90;;;;;;4428475;32;20092;-77
2021/04/14 08:59:04;;;;;;;0.45;0.45;;;8.20;99.90;;;;;;4427035;32;20069;-77
2021/04/14 09:01:32;;;;;;;0.25;0.25;;;8.00;99.90;;;;;;4424888;32;20140;-76
2021/04/14 09:04:01;;;;;;;2.90;1.40;;;8.00;99.90;;;;;;4423177;32;20069;-77
2021/04/14 09:06:29;;;;;;;0.52;0.43;;;8.10;99.90;;;;;;4426638;32;20412;-77
2021/04/14 09:08:57;;;;;;;1.50;1.00;;;8.20;99.90;;;;;;4426283;32;20441;-77
2021/04/14 09:11:27;;;;;;;0.55;0.55;;;8.30;99.90;;;;;;4425134;32;20505;-77
2021/04/14 09:14:01;;;;;;;0.30;0.30;;;8.40;99.90;;;;;;4423448;32;20502;-77
2021/04/14 09:16:36;;;;;;;0.40;0.40;;;8.40;99.90;;;;;;4428421;32;20551;-77
2021/04/14 09:19:10;;;;;;;0.62;0.62;;;8.40;99.90;;;;;;4423805;32;20527;-76
2021/04/14 09:21:46;;;;;;;0.62;0.62;;;8.30;99.90;;;;;;4424603;32;20126;-76
2021/04/14 09:24:34;;;;;;;1.65;1.02;;;8.20;99.90;;;;;;4427486;32;20082;-77
2021/04/14 09:27:02;;;;;;;0.37;0.37;;;8.20;99.90;;;;;;4406236;32;20069;-76
2021/04/14 09:29:34;;;;;;;2.50;0.70;;;8.00;99.90;;;;;;4419705;32;20146;-76
2021/04/14 09:32:11;;;;;;;0.28;0.28;;;8.20;99.90;;;;;;4421877;32;20141;-76
2021/04/14 09:34:42;;;;;;;17.35;0.70;;;8.50;99.90;;;;;;4414413;32;20507;-76
2021/04/14 09:37:17;;;;;;;0.50;0.50;;;8.90;99.90;;;;;;4422896;32;20081;-75
2021/04/14 09:39:46;;;;;;;0.37;0.37;;;9.20;99.90;;;;;;4421045;32;81283;-76
2021/04/14 09:42:35;;;;;;;0.30;0.30;;;9.30;99.90;;;;;;4425779;32;20097;-76
2021/04/14 09:45:29;;;;;;;4.53;1.00;;;9.70;99.90;;;;;;4414400;32;20069;-75
2021/04/14 09:47:57;;;;;;;1.45;0.95;;;10.20;99.90;;;;;;4414918;32;20077;-75
2021/04/14 09:50:33;;;;;;;3.50;0.73;;;10.40;99.90;;;;;;4422266;32;20073;-75
2021/04/14 09:53:17;;;;;;;1.00;0.93;;;10.40;99.90;;;;;;4423516;32;20106;-75
2021/04/14 09:56:08;;;;;;;0.30;0.30;;;9.90;99.40;;;;;;4425639;32;20472;-75
2021/04/14 09:58:43;;;;;;;0.40;0.40;;;9.50;99.20;;;;;;4410548;32;20090;-74
2021/04/14 10:01:14;;;;;;;0.77;0.77;;;9.30;99.90;;;;;;4426705;32;20428;-75
2021/04/14 10:03:44;;;;;;;0.30;0.30;;;9.20;99.90;;;;;;4419043;32;20534;-75
2021/04/14 10:06:13;;;;;;;0.20;0.20;;;9.20;99.00;;;;;;4420815;32;20065;-75
2021/04/14 10:08:43;;;;;;;0.30;0.30;;;9.20;99.90;;;;;;4425461;32;20069;-76
2021/04/14 10:11:09;;;;;;;1.45;0.88;;;9.20;99.50;;;;;;4428092;32;20100;-75
2021/04/14 10:13:35;;;;;;;1.35;0.62;;;9.10;98.70;;;;;;4429469;32;20140;-74
2021/04/14 10:16:02;;;;;;;1.33;1.02;;;9.00;99.90;;;;;;4429063;32;20178;-74
2021/04/14 10:18:31;;;;;;;0.80;0.80;;;9.10;99.90;;;;;;4427433;32;20417;-73
2021/04/14 10:21:14;;;;;;;8.20;0.70;;;9.50;99.30;;;;;;4425008;32;20085;-73
2021/04/14 10:23:40;;;;;;;0.50;0.50;;;9.70;98.20;;;;;;4425002;32;20781;-75
2021/04/14 10:26:08;;;;;;;0.73;0.50;;;9.50;96.60;;;;;;4427026;32;20069;-73
2021/04/14 10:28:35;;;;;;;0.30;0.30;;;9.50;97.20;;;;;;4426540;32;20078;-74
2021/04/14 10:31:08;;;;;;;1.87;0.52;;;9.30;97.50;;;;;;4428176;32;20435;-73
2021/04/14 10:33:35;;;;;;;0.40;0.40;;;9.30;98.10;;;;;;4427460;32;20201;-73
2021/04/14 10:36:22;;;;;;;1.10;0.88;;;9.30;98.40;;;;;;4425426;32;20066;-72
2021/04/14 10:38:49;;;;;;;3.85;0.73;;;9.00;98.80;;;;;;4413153;32;20078;-73
2021/04/14 10:41:22;;;;;;;0.30;0.30;;;9.00;99.10;;;;;;4427673;32;20098;-73
2021/04/14 10:43:47;;;;;;;2.30;0.40;;;9.40;99.70;;;;;;4426990;32;20090;-74
2021/04/14 10:46:21;;;;;;;2.25;1.45;;;9.80;97.90;;;;;;4426685;32;20531;-72
2021/04/14 10:48:49;;;;;;;0.30;0.30;;;10.00;97.50;;;;;;4428464;32;20844;-72
2021/04/14 10:51:22;;;;;;;0.20;0.20;;;10.40;95.90;;;;;;4426111;32;20089;-71
2021/04/14 10:53:51;;;;;;;0.40;0.40;;;10.80;95.00;;;;;;4421327;32;20069;-71
2021/04/14 10:56:22;;;;;;;0.30;0.30;;;11.30;93.90;;;;;;4423403;32;20129;-72
2021/04/14 10:58:50;;;;;;;0.43;0.43;;;11.60;91.60;;;;;;4422866;32;20431;-72
2021/04/14 11:01:19;;;;;;;0.30;0.30;;;11.60;91.50;;;;;;4422978;32;20089;-72
2021/04/14 11:04:05;;;;;;;2.03;1.10;;;11.50;91.30;;;;;;4430061;32;20220;-73
2021/04/14 11:06:33;;;;;;;0.40;0.40;;;11.20;92.00;;;;;;4424310;32;20081;-72
2021/04/14 11:08:59;;;;;;;0.47;0.47;;;10.80;91.60;;;;;;4425859;32;20089;-72
2021/04/14 11:11:25;;;;;;;0.50;0.50;;;10.60;92.70;;;;;;4424475;32;20081;-72
2021/04/14 11:13:50;;;;;;;0.30;0.30;;;10.40;93.10;;;;;;4427500;32;20069;-72
2021/04/14 11:16:16;;;;;;;0.50;0.50;;;10.10;93.10;;;;;;4437100;32;20069;-72
2021/04/14 11:18:43;;;;;;;0.30;0.30;;;10.10;94.50;;;;;;4419088;32;20195;-72
2021/04/14 11:21:30;;;;;;;0.20;0.20;;;10.10;93.90;;;;;;4421951;32;20140;-72
2021/04/14 11:24:13;;;;;;;0.30;0.30;;;10.70;93.40;;;;;;4422149;32;20073;-72
2021/04/14 11:26:55;;;;;;;0.40;0.40;;;10.90;92.50;;;;;;4425798;32;20065;-72
2021/04/14 11:29:26;;;;;;;0.30;0.30;;;10.90;93.00;;;;;;4418803;32;20074;-72
2021/04/14 11:31:53;;;;;;;0.55;0.55;;;10.70;92.10;;;;;;4418611;32;20097;-72
2021/04/14 11:34:22;;;;;;;0.30;0.30;;;10.50;92.00;;;;;;4411850;32;20081;-73
2021/04/14 11:37:10;;;;;;;0.30;0.30;;;10.40;92.80;;;;;;4426277;32;20069;-72
2021/04/14 11:39:58;;;;;;;0.30;0.30;;;10.30;92.70;;;;;;4425231;32;20626;-73
2021/04/14 11:42:26;;;;;;;0.35;0.35;;;10.30;93.40;;;;;;4428579;32;20454;-73
2021/04/14 11:44:55;;;;;;;0.50;0.50;;;10.10;93.00;;;;;;4427578;32;20093;-73
2021/04/14 11:47:25;;;;;;;1.00;0.57;;;10.00;93.50;;;;;;4426505;32;20065;-74
2021/04/14 11:49:51;;;;;;;0.20;0.20;;;9.80;94.30;;;;;;4427786;32;20502;-72
2021/04/14 11:52:36;;;;;;;0.35;0.35;;;9.60;95.20;;;;;;4425586;32;20045;-73
2021/04/14 11:55:11;;;;;;;0.50;0.50;;;9.50;95.60;;;;;;4426676;32;20085;-73
2021/04/14 11:57:42;;;;;;;0.28;0.28;;;9.40;95.80;;;;;;4418604;32;20081;-73
2021/04/14 12:00:17;;;;;;;;;;;9.40;95.40;;;;;;4418014;32;20089;-73
2021/04/14 12:02:44;;;;;;;1.10;1.00;;;9.50;95.40;;;;;;4420900;32;19940;-73
2021/04/14 12:05:11;;;;;;;5.47;0.85;;;9.70;95.40;;;;;;4425242;32;20081;-73
2021/04/14 12:07:37;;;;;;;0.30;0.30;;;9.90;94.80;;;;;;4427672;32;20081;-73
2021/04/14 12:10:05;;;;;;;0.30;0.30;;;10.50;94.20;;;;;;4422237;32;20143;-73
2021/04/14 12:12:31;;;;;;;0.40;0.40;;;11.40;90.60;;;;;;4425913;32;20062;-73
2021/04/14 12:14:57;;;;;;;0.52;0.52;;;12.40;86.60;;;;;;4428545;32;20080;-72
2021/04/14 12:17:24;;;;;;;1.45;1.10;;;13.20;83.80;;;;;;4426406;32;20122;-72
2021/04/14 12:19:50;;;;;;;0.47;0.47;;;13.80;80.30;;;;;;4423761;32;20073;-73
2021/04/14 12:22:16;;;;;;;0.20;0.20;;;14.70;70.50;;;;;;4425187;32;20081;-72
2021/04/14 12:24:43;;;;;;;0.30;0.30;;;14.80;70.30;;;;;;4426601;32;20077;-73
2021/04/14 12:27:09;;;;;;;0.50;0.50;;;14.30;72.30;;;;;;4425620;32;20065;-72
2021/04/14 12:29:35;;;;;;;3.67;0.47;;;13.50;75.10;;;;;;4428501;32;20412;-73
2021/04/14 12:32:01;;;;;;;0.30;0.30;;;13.00;73.10;;;;;;4426687;32;20522;-73
2021/04/14 12:34:26;;;;;;;0.30;0.30;;;12.20;72.60;;;;;;4426133;32;20154;-73
2021/04/14 12:36:52;;;;;;;0.40;0.40;;;11.90;74.80;;;;;;4435016;32;20530;-73
2021/04/14 12:39:17;;;;;;;1.23;0.90;;;11.70;75.60;;;;;;4424702;32;20077;-75
2021/04/14 12:41:43;;;;;;;0.30;0.30;;;11.30;78.10;;;;;;4426049;32;20187;-74
2021/04/14 12:44:09;;;;;;;0.40;0.40;;;11.20;80.80;;;;;;4416996;32;20073;-74
2021/04/14 12:46:45;;;;;;;1.17;0.60;;;11.30;78.10;;;;;;4431736;32;20077;-74
2021/04/14 12:49:13;;;;;;;0.20;0.20;;;11.00;81.80;;;;;;4429923;32;20089;-74
2021/04/14 12:51:47;;;;;;;0.28;0.28;;;10.80;80.80;;;;;;4429515;32;20116;-74
2021/04/14 12:54:24;;;;;;;1.87;1.05;;;10.70;80.00;;;;;;4425651;32;20085;-74
2021/04/14 12:56:56;;;;;;;0.20;0.20;;;10.80;79.90;;;;;;4430608;32;20082;-74
2021/04/14 12:59:26;;;;;;;0.20;0.20;;;10.80;79.60;;;;;;4423703;32;20081;-74
2021/04/14 13:01:56;;;;;;;0.30;0.30;;;10.70;78.50;;;;;;4422459;32;20082;-73
2021/04/14 13:04:33;;;;;;;0.20;0.20;;;10.60;79.30;;;;;;4426317;32;20073;-74
2021/04/14 13:07:07;;;;;;;0.30;0.30;;;10.50;80.00;;;;;;4432079;32;20081;-74